createdAt,value
2019-01-16T00:06:17.701Z,45.10
2019-01-16T00:16:53.003Z,45.60
2019-01-16T00:27:19.076Z,45.90
2019-01-16T00:37:47.095Z,46.00
2019-01-16T00:48:10.827Z,46.30
2019-01-16T00:58:34.245Z,46.30
2019-01-16T01:08:57.016Z,46.50
2019-01-16T01:19:26.154Z,46.70
2019-01-16T01:29:49.671Z,46.50
2019-01-16T01:40:09.415Z,46.60
2019-01-16T01:50:45.954Z,46.70
2019-01-16T02:01:16.200Z,46.60
2019-01-16T02:11:39.189Z,46.70
2019-01-16T02:22:02.082Z,46.80
2019-01-16T02:32:25.329Z,46.90
2019-01-16T02:42:55.133Z,46.90
2019-01-16T02:53:13.532Z,46.90
2019-01-16T03:03:58.245Z,46.90
2019-01-16T03:14:22.531Z,47.00
2019-01-16T03:24:45.795Z,47.20
2019-01-16T03:35:01.964Z,47.20
2019-01-16T03:45:25.959Z,47.30
2019-01-16T03:55:51.809Z,47.30
2019-01-16T04:06:19.246Z,47.40
2019-01-16T04:16:46.345Z,47.40
2019-01-16T04:27:17.222Z,47.50
2019-01-16T04:37:44.775Z,47.60
2019-01-16T04:48:15.359Z,47.60
2019-01-16T04:58:45.375Z,47.60
2019-01-16T05:09:08.168Z,47.70
2019-01-16T05:19:41.395Z,47.80
2019-01-16T05:30:17.382Z,47.90
2019-01-16T05:40:40.338Z,47.80
2019-01-16T05:51:00.443Z,47.90
2019-01-16T06:01:24.774Z,47.90
2019-01-16T06:11:41.138Z,48.00
2019-01-16T06:22:11.626Z,47.50
2019-01-16T06:32:36.359Z,48.10
2019-01-16T06:43:06.773Z,48.20
2019-01-16T06:53:29.791Z,48.20
2019-01-16T07:03:52.681Z,48.20
2019-01-16T07:14:17.730Z,48.20
2019-01-16T07:24:42.044Z,48.20
2019-01-16T07:34:57.058Z,48.40
2019-01-16T07:45:27.878Z,48.40
2019-01-16T07:55:47.778Z,48.40
2019-01-16T08:06:24.751Z,48.40
2019-01-16T08:16:44.147Z,48.90
2019-01-16T08:27:14.867Z,49.30
2019-01-16T08:37:38.003Z,49.30
2019-01-16T08:48:00.896Z,49.40
2019-01-16T08:58:28.300Z,49.40
2019-01-16T09:09:07.049Z,49.40
2019-01-16T09:19:19.502Z,49.30
2019-01-16T09:29:53.122Z,48.70
2019-01-16T09:40:23.271Z,44.20
2019-01-16T09:50:53.816Z,39.10
2019-01-16T10:01:24.373Z,40.10
2019-01-16T10:11:42.584Z,40.10
2019-01-16T10:22:10.285Z,40.60
2019-01-16T10:32:46.525Z,41.40
2019-01-16T10:43:17.174Z,41.90
2019-01-16T10:53:56.784Z,42.20
2019-01-16T11:04:12.719Z,42.40
2019-01-16T11:14:42.823Z,42.40
2019-01-16T11:25:06.345Z,42.60
2019-01-16T11:35:29.852Z,42.80
2019-01-16T11:46:00.353Z,42.50
2019-01-16T11:56:30.588Z,42.60
2019-01-16T12:06:54.927Z,42.60
2019-01-16T12:17:24.619Z,42.70
2019-01-16T12:27:47.546Z,42.70
2019-01-16T12:38:17.600Z,42.70
2019-01-16T12:48:51.731Z,42.70
2019-01-16T12:59:16.141Z,42.60
2019-01-16T13:09:31.840Z,42.40
2019-01-16T13:20:07.969Z,42.40
2019-01-16T13:30:32.396Z,42.20
2019-01-16T13:41:12.169Z,42.30
2019-01-16T13:51:25.735Z,42.10
2019-01-16T14:01:56.777Z,42.00
2019-01-16T14:12:23.900Z,41.90
2019-01-16T14:22:59.821Z,41.70
2019-01-16T14:33:28.032Z,41.60
2019-01-16T14:43:53.999Z,41.30
2019-01-16T14:54:36.503Z,41.20
2019-01-16T15:04:57.735Z,41.20
2019-01-16T15:15:27.709Z,41.60
2019-01-16T15:25:52.858Z,41.60
2019-01-16T15:36:16.941Z,41.70
2019-01-16T15:46:39.980Z,41.50
2019-01-16T15:57:22.648Z,41.30
2019-01-16T16:07:49.754Z,41.20
2019-01-16T16:18:13.090Z,41.10
2019-01-16T16:28:40.601Z,40.50
2019-01-16T16:39:06.226Z,41.30
2019-01-16T16:49:28.593Z,41.70
2019-01-16T17:00:08.018Z,40.70
2019-01-16T17:10:32.657Z,39.80
2019-01-16T17:20:57.177Z,40.90
2019-01-16T17:31:33.638Z,41.50
2019-01-16T17:42:05.533Z,41.70
2019-01-16T17:52:38.707Z,42.00
2019-01-16T18:03:03.514Z,42.20
2019-01-16T18:13:26.845Z,42.50
2019-01-16T18:23:57.524Z,42.50
2019-01-16T18:34:18.997Z,42.70
2019-01-16T18:44:37.758Z,42.80
2019-01-16T18:55:11.930Z,42.80
2019-01-16T19:05:35.058Z,42.90
2019-01-16T19:16:00.251Z,43.10
2019-01-16T19:26:14.667Z,43.20
2019-01-16T19:36:45.234Z,43.20
2019-01-16T19:47:04.021Z,43.20
2019-01-16T19:57:27.495Z,43.30
2019-01-16T20:07:51.691Z,44.00
2019-01-16T20:18:26.165Z,44.50
2019-01-16T20:28:57.088Z,44.80
2019-01-16T20:39:20.667Z,45.10
2019-01-16T20:49:42.662Z,45.40
2019-01-16T21:00:10.498Z,45.50
2019-01-16T21:10:30.600Z,45.80
2019-01-16T21:21:01.391Z,41.70
2019-01-16T21:31:28.885Z,41.80
2019-01-16T21:41:56.540Z,42.40
2019-01-16T21:52:17.958Z,42.90
2019-01-16T22:02:42.478Z,43.30
2019-01-16T22:13:13.117Z,43.50
2019-01-16T22:23:46.633Z,43.70
2019-01-16T22:34:10.453Z,43.80
2019-01-16T22:44:47.117Z,44.20
2019-01-16T22:55:20.799Z,44.40
2019-01-16T23:05:48.060Z,44.70
2019-01-16T23:16:15.697Z,43.60
2019-01-16T23:26:38.989Z,42.30
2019-01-16T23:37:09.470Z,42.70
2019-01-16T23:47:33.163Z,43.20
2019-01-16T23:57:56.506Z,43.60
